Alton, Texas
Current Conditions -  °F | °C
As of 3:53 AM on Tuesday 21 Oct 2014 (Local Time) from KMFE Reporting Station
Scattered Clouds Scattered Clouds  
Wind Chill: 72°   Ceiling: Unl
Heat Index: 72°   Visibility: 9mi
Dew Point: 70°   Wind: 5mph
Humidity: 93%   Direction: 360°N
Pressure: 29.93"   Gusts: NA
Location:  26.2155°N, 98.325°W
Report Text: KMFE 210853Z AUTO 36004KT 9SM SCT050 22/21 A2993 RMK AO2 SLP131 T02220211 57010
Loading
Personal Weather Stations






























Interactive Weather Map New forecast layout! Learn more

10-Day Weather Forecast

Advertisements
Track Severe Weather on mobile